Pagrindinis puslapis
METAR-TAF:

METAR-TAF

Oro uostai :

Uberlandija, Minas Žeraisas, Brazilija

platuma: 18-53S, ilguma: 048-14W, Aukštis: 943 m

Dabartinis oras

Ataskaita buvo paskelbta 1 valandą ir 6 minutes, ne 21:00 UTC
Vėjas 7 kt iš Šiaurės Rytų
Temperatūra 29°C
Drėgmė 22%
Slėgis 1018 hPa
Matomumas 10 km arba daugiau
nėra debesų žemiau 1500 m ir nėra kamuolinių lietaus debesų

METAR: SBUL 162100Z 04007KT CAVOK 29/05 Q1018

Laikas: 19:06 (22:06 UTC)

Prognozė

Ataskaita buvo paskelbta 6 valandos ir 0 minutes, ne 16:06 UTC
Prognozė galioja nuo 16 metu 18 UTC su 17 metu 06 UTC
Vėjas 15 kt iš Rytų/Šiaurės Rytų
Matomumas 10 km arba daugiau
nėra debesų žemiau 1500 m ir nėra kamuolinių lietaus debesų

TAF: SBUL 161606Z 1618/1706 06015KT CAVOK TX33/1618Z TN22/1705Z RMK PHM

Orai ataskaitas ir orų prognozės (METAR, TAF).

turimą stotys yra geltonos ir raudonos taškus žemėlapyje.

Perkelti pele per norėdami pamatyti stoties vardą.

Tada spustelėkite, norėdami matyti oro stebėjimo ir prognozės.

Norėdami pakeisti žemėlapį: spustelėkite ant žalios mygtukų su juodo kryžiaus žemyn,; žalią mygtuką su brūkšneliu, jei norite nutolinti; arba žalių rodyklių gretimoms žemėlapius.


METAR-TAF: